MPBO/BOC METAR and TAF weather

Enter ICAO airport designator
Station Type Date Time Source
MPBO METAR 2022/12/05 13:00 UTC NOAA

MPBO 051300Z 31004KT 9999 SCT016 BKN080 24/23 Q1012


Station Type Date Time Source
MPBO Decoded METAR 2022/12/05 13:00 UTC NOAA

Bocas Del Toro International, Panama (MPBO) 09-21N 082-15W
Dec 05, 2022 - 08:00 AM EST / 2022.12.05 1300 UTC
Wind: from the NW (310 degrees) at 5 MPH (4 KT):0
Visibility: greater than 7 mile(s):0
Sky conditions: mostly cloudy
Temperature: 75 F (24 C)
Dew Point: 73 F (23 C)
Relative Humidity: 94%
Pressure (altimeter): 29.88 in. Hg (1012 hPa)
ob: MPBO 051300Z 31004KT 9999 SCT016 BKN080 24/23 Q1012
cycle: 13

Station Type Date Time Source
MPBO TAF 2011/07/19 06:30 UTC NOAA

TAF TAF MPBO 190500Z 1906/1918 00000KT 9999 FEW020
BECMG 1912/1916 30004KT 9000 SCT018 BKN100
TEMPO 1916/1918 FEW018CB

Example: see airport list